createdAt,value
2023-04-08T00:02:26.592Z,20.55
2023-04-08T00:04:59.599Z,17.33
2023-04-08T00:07:32.424Z,19.80
2023-04-08T00:10:06.995Z,19.08
2023-04-08T00:12:39.813Z,20.05
2023-04-08T00:15:14.187Z,21.25
2023-04-08T00:17:47.201Z,21.77
2023-04-08T00:20:20.016Z,21.63
2023-04-08T00:22:52.823Z,22.33
2023-04-08T00:25:25.968Z,21.70
2023-04-08T00:27:58.976Z,19.67
2023-04-08T00:30:34.059Z,20.83
2023-04-08T00:33:09.078Z,21.30
2023-04-08T00:35:42.054Z,26.80
2023-04-08T00:38:14.887Z,21.98
2023-04-08T00:40:47.913Z,21.17
2023-04-08T00:43:21.984Z,21.80
2023-04-08T00:45:56.576Z,23.02
2023-04-08T00:48:31.373Z,23.13
2023-04-08T00:51:04.873Z,20.10
2023-04-08T00:53:37.807Z,19.40
2023-04-08T00:56:10.719Z,19.83
2023-04-08T00:58:43.879Z,19.52
2023-04-08T01:01:27.494Z,17.67
2023-04-08T01:04:07.604Z,18.25
2023-04-08T01:06:47.060Z,23.08
2023-04-08T01:09:24.664Z,20.70
2023-04-08T01:11:59.625Z,18.95
2023-04-08T01:14:36.438Z,20.17
2023-04-08T01:17:11.790Z,17.42
2023-04-08T01:19:47.838Z,21.67
2023-04-08T01:22:29.213Z,18.55
2023-04-08T01:25:08.143Z,19.85
2023-04-08T01:27:44.028Z,18.15
2023-04-08T01:30:19.916Z,17.77
2023-04-08T01:32:55.701Z,17.33
2023-04-08T01:35:29.577Z,19.52
2023-04-08T01:38:04.792Z,20.50
2023-04-08T01:40:40.741Z,18.23
2023-04-08T01:43:17.523Z,20.17
2023-04-08T01:45:54.481Z,20.35
2023-04-08T01:48:29.345Z,19.80
2023-04-08T01:51:05.368Z,16.92
2023-04-08T01:53:38.728Z,18.08
2023-04-08T01:56:14.399Z,17.83
2023-04-08T01:58:53.198Z,19.40
2023-04-08T02:01:28.381Z,17.38
2023-04-08T02:04:03.129Z,19.23
2023-04-08T02:06:36.640Z,16.88
2023-04-08T02:09:09.692Z,18.45
2023-04-08T02:11:43.500Z,18.35
2023-04-08T02:14:17.842Z,18.67
2023-04-08T02:16:54.941Z,18.40
2023-04-08T02:19:31.225Z,16.33
2023-04-08T02:22:10.385Z,17.60
2023-04-08T02:24:45.342Z,22.70
2023-04-08T02:27:19.984Z,16.83
2023-04-08T02:29:58.859Z,15.30
2023-04-08T02:32:33.785Z,15.98
2023-04-08T02:35:08.550Z,19.05
2023-04-08T02:37:41.746Z,17.58
2023-04-08T02:40:37.048Z,17.15
2023-04-08T02:43:10.125Z,19.92
2023-04-08T02:45:45.437Z,15.40
2023-04-08T02:48:18.302Z,18.13
2023-04-08T02:50:51.120Z,17.27
2023-04-08T02:53:24.639Z,18.10
2023-04-08T02:55:57.492Z,16.60
2023-04-08T02:58:30.609Z,17.40
2023-04-08T03:01:04.848Z,16.60
2023-04-08T03:03:37.889Z,16.50
2023-04-08T03:06:10.715Z,17.33
2023-04-08T03:08:43.792Z,19.05
2023-04-08T03:11:16.665Z,15.57
2023-04-08T03:13:50.099Z,17.85
2023-04-08T03:16:24.704Z,18.83
2023-04-08T03:18:58.629Z,21.10
2023-04-08T03:21:32.392Z,18.33
2023-04-08T03:24:05.710Z,16.88
2023-04-08T03:26:38.465Z,17.30
2023-04-08T03:29:11.249Z,18.83
2023-04-08T03:31:45.890Z,17.83
2023-04-08T03:34:19.045Z,20.25
2023-04-08T03:36:51.948Z,17.38
2023-04-08T03:39:24.799Z,20.10
2023-04-08T03:41:59.848Z,17.77
2023-04-08T03:44:32.620Z,16.70
2023-04-08T03:47:07.320Z,16.10
2023-04-08T03:49:40.574Z,18.92
2023-04-08T03:52:13.452Z,19.00
2023-04-08T03:54:46.229Z,18.35
2023-04-08T03:57:19.162Z,21.05
2023-04-08T03:59:51.996Z,22.42
2023-04-08T04:02:26.638Z,18.85
2023-04-08T04:04:59.737Z,19.92
2023-04-08T04:07:32.684Z,18.25
2023-04-08T04:10:06.558Z,18.63
2023-04-08T04:12:39.546Z,19.25
2023-04-08T04:15:13.333Z,16.52
2023-04-08T04:17:49.158Z,19.35
2023-04-08T04:20:22.527Z,18.85
2023-04-08T04:22:55.339Z,18.45
2023-04-08T04:25:28.696Z,19.85
2023-04-08T04:28:01.993Z,15.85
2023-04-08T04:30:34.887Z,18.33
2023-04-08T04:33:09.272Z,20.05
2023-04-08T04:35:42.073Z,19.48
2023-04-08T04:38:15.157Z,17.20
2023-04-08T04:40:48.085Z,18.20
2023-04-08T04:43:20.995Z,17.67
2023-04-08T04:45:53.776Z,19.23
2023-04-08T04:48:28.054Z,20.70
2023-04-08T04:51:03.193Z,24.95
2023-04-08T04:53:36.122Z,21.92
2023-04-08T04:56:09.100Z,18.73
2023-04-08T04:58:42.332Z,21.63
2023-04-08T05:01:15.830Z,17.58
2023-04-08T05:03:50.313Z,17.55
2023-04-08T05:06:24.858Z,18.25
2023-04-08T05:08:57.840Z,19.02
2023-04-08T05:11:30.961Z,18.00
2023-04-08T05:14:03.820Z,20.85
2023-04-08T05:16:36.912Z,21.13
2023-04-08T05:19:13.616Z,19.23
2023-04-08T05:21:46.389Z,21.85
2023-04-08T05:24:19.266Z,20.80
2023-04-08T05:26:53.377Z,19.20
2023-04-08T05:29:26.665Z,19.20
2023-04-08T05:32:00.577Z,24.58
2023-04-08T05:34:34.897Z,28.63
2023-04-08T05:37:08.054Z,25.13
2023-04-08T05:39:40.888Z,24.02
2023-04-08T05:42:14.282Z,23.45
2023-04-08T05:44:47.094Z,21.02
2023-04-08T05:47:19.913Z,19.73
2023-04-08T05:49:54.405Z,21.30
2023-04-08T05:52:27.240Z,21.52
2023-04-08T05:55:00.540Z,20.08
2023-04-08T05:57:33.837Z,19.15
2023-04-08T06:00:09.478Z,19.38
2023-04-08T06:02:43.360Z,18.95
2023-04-08T06:05:19.316Z,22.08
2023-04-08T06:07:52.273Z,20.42
2023-04-08T06:10:25.177Z,20.75
2023-04-08T06:12:57.956Z,23.80
2023-04-08T06:15:31.160Z,21.17
2023-04-08T06:18:04.513Z,18.55
2023-04-08T06:20:38.887Z,20.08
2023-04-08T06:23:11.804Z,17.40
2023-04-08T06:25:44.577Z,22.40
2023-04-08T06:28:17.598Z,21.42
2023-04-08T06:30:50.352Z,22.92
2023-04-08T06:33:23.349Z,19.25
2023-04-08T06:36:04.757Z,18.50
2023-04-08T06:38:37.544Z,21.27
2023-04-08T06:41:10.354Z,22.88
2023-04-08T06:43:43.172Z,19.88
2023-04-08T06:46:16.176Z,20.35
2023-04-08T06:48:49.359Z,18.58
2023-04-08T06:51:24.394Z,18.48
2023-04-08T06:53:57.510Z,17.65
2023-04-08T06:56:30.441Z,15.90
2023-04-08T06:59:03.231Z,15.57
2023-04-08T07:01:36.076Z,16.60
2023-04-08T07:04:09.041Z,19.85
2023-04-08T07:06:43.312Z,16.08
2023-04-08T07:09:16.203Z,15.98
2023-04-08T07:11:49.478Z,13.55
2023-04-08T07:14:22.360Z,17.55
2023-04-08T07:16:55.420Z,16.83
2023-04-08T07:19:28.420Z,13.52
2023-04-08T07:22:02.975Z,11.10
2023-04-08T07:24:36.333Z,12.77
2023-04-08T07:27:09.766Z,12.38
2023-04-08T07:29:42.610Z,10.65
2023-04-08T07:32:16.169Z,10.68
2023-04-08T07:34:49.216Z,11.23
2023-04-08T07:37:23.599Z,10.02
2023-04-08T07:39:56.783Z,9.93
2023-04-08T07:42:29.640Z,11.68
2023-04-08T07:45:02.544Z,11.40
2023-04-08T07:47:35.682Z,12.23
2023-04-08T07:50:09.296Z,13.27
2023-04-08T07:52:43.702Z,12.90
2023-04-08T07:55:16.649Z,10.52
2023-04-08T07:57:49.820Z,9.80
2023-04-08T08:00:23.308Z,10.40
2023-04-08T08:02:56.374Z,11.43
2023-04-08T08:05:29.656Z,10.23
2023-04-08T08:08:04.019Z,9.60
2023-04-08T08:10:37.052Z,11.23
2023-04-08T08:13:10.081Z,8.73
2023-04-08T08:15:43.715Z,10.68
2023-04-08T08:18:16.767Z,12.93
2023-04-08T08:20:49.756Z,8.57
2023-04-08T08:23:24.593Z,8.65
2023-04-08T08:26:01.083Z,8.63
2023-04-08T08:28:34.367Z,7.90
2023-04-08T08:31:07.495Z,8.10
2023-04-08T08:33:40.663Z,11.05
2023-04-08T08:36:13.660Z,8.95
2023-04-08T08:38:47.843Z,10.82
2023-04-08T08:41:20.686Z,12.18
2023-04-08T08:43:55.036Z,8.23
2023-04-08T08:46:27.971Z,8.13
2023-04-08T08:49:01.190Z,7.78
2023-04-08T08:51:35.014Z,7.50
2023-04-08T08:54:09.674Z,9.70
2023-04-08T08:56:43.454Z,9.70
2023-04-08T08:59:16.355Z,8.30
2023-04-08T09:01:49.272Z,9.00
2023-04-08T09:04:23.078Z,6.60
2023-04-08T09:07:10.483Z,7.30
2023-04-08T09:09:52.560Z,7.25
2023-04-08T09:12:27.331Z,8.10
2023-04-08T09:15:07.233Z,8.70
2023-04-08T09:17:41.914Z,8.10
2023-04-08T09:20:15.636Z,7.30
2023-04-08T09:22:59.225Z,7.95
2023-04-08T09:25:34.664Z,5.55
2023-04-08T09:28:20.339Z,7.65
2023-04-08T09:30:53.140Z,7.88
2023-04-08T09:33:31.805Z,6.47
2023-04-08T09:36:05.264Z,6.38
2023-04-08T09:38:38.138Z,7.40
2023-04-08T09:41:15.621Z,6.20
2023-04-08T09:43:50.543Z,7.45
2023-04-08T09:46:28.749Z,6.20
2023-04-08T09:49:07.445Z,5.82
2023-04-08T09:51:46.497Z,3.75
2023-04-08T09:54:23.982Z,4.68
2023-04-08T09:57:05.611Z,4.63
2023-04-08T09:59:42.984Z,5.28
2023-04-08T10:02:21.072Z,7.40
2023-04-08T10:04:58.768Z,6.47
2023-04-08T10:07:31.686Z,4.78
2023-04-08T10:10:05.831Z,5.72
2023-04-08T10:12:40.704Z,5.00
2023-04-08T10:15:27.605Z,5.13
2023-04-08T10:18:34.394Z,7.05
2023-04-08T10:21:33.791Z,5.30
2023-04-08T10:24:11.795Z,5.80
2023-04-08T10:26:46.557Z,6.75
2023-04-08T10:29:44.222Z,4.80
2023-04-08T10:32:30.314Z,4.78
2023-04-08T10:35:04.341Z,4.13
2023-04-08T10:37:37.122Z,5.55
2023-04-08T10:40:20.603Z,4.80
2023-04-08T10:42:55.934Z,5.00
2023-04-08T10:45:30.702Z,4.72
2023-04-08T10:48:18.451Z,5.20
2023-04-08T10:50:55.907Z,4.78
2023-04-08T10:53:30.188Z,5.85
2023-04-08T10:56:07.404Z,5.80
2023-04-08T10:58:49.537Z,5.43
2023-04-08T11:01:24.461Z,5.18
2023-04-08T11:03:57.863Z,6.15
2023-04-08T11:06:30.851Z,6.10
2023-04-08T11:09:05.698Z,6.18
2023-04-08T11:11:39.194Z,6.07
2023-04-08T11:14:12.385Z,8.77
2023-04-08T11:16:47.692Z,6.90
2023-04-08T11:19:21.517Z,5.95
2023-04-08T11:21:54.631Z,6.68
2023-04-08T11:24:28.451Z,6.35
2023-04-08T11:27:02.965Z,4.95
2023-04-08T11:29:36.431Z,5.13
2023-04-08T11:32:10.952Z,4.65
2023-04-08T11:34:44.652Z,5.78
2023-04-08T11:37:17.519Z,5.72
2023-04-08T11:39:50.401Z,4.18
2023-04-08T11:42:33.912Z,6.00
2023-04-08T11:45:13.077Z,6.28
2023-04-08T11:47:48.293Z,5.38
2023-04-08T11:50:25.861Z,6.05
2023-04-08T11:53:00.063Z,7.57
2023-04-08T11:55:34.298Z,5.13
2023-04-08T11:58:07.905Z,5.78
2023-04-08T12:00:40.975Z,4.65
2023-04-08T12:03:15.908Z,4.90
2023-04-08T12:05:49.230Z,4.00
2023-04-08T12:08:22.817Z,5.88
2023-04-08T12:10:55.882Z,4.40
2023-04-08T12:13:29.034Z,5.40
2023-04-08T12:16:01.895Z,4.80
2023-04-08T12:18:36.819Z,5.25
2023-04-08T12:21:09.579Z,5.63
2023-04-08T12:23:42.897Z,12.57
2023-04-08T12:26:15.767Z,5.57
2023-04-08T12:28:48.662Z,4.97
2023-04-08T12:31:22.768Z,5.38
2023-04-08T12:33:57.475Z,5.50
2023-04-08T12:36:31.932Z,6.65
2023-04-08T12:39:06.134Z,5.22
2023-04-08T12:41:39.383Z,5.47
2023-04-08T12:44:12.167Z,6.50
2023-04-08T12:46:45.069Z,6.55
2023-04-08T12:49:19.403Z,6.05
2023-04-08T12:51:52.850Z,5.72
2023-04-08T12:54:25.908Z,5.57
2023-04-08T12:56:58.605Z,5.18
2023-04-08T12:59:32.222Z,5.35
2023-04-08T13:02:05.174Z,4.32
2023-04-08T13:04:39.963Z,4.72
2023-04-08T13:07:12.744Z,6.18
2023-04-08T13:09:45.906Z,4.70
2023-04-08T13:12:18.707Z,6.32
2023-04-08T13:14:51.693Z,4.30
2023-04-08T13:17:24.698Z,6.75
2023-04-08T13:19:59.033Z,4.80
2023-04-08T13:22:33.638Z,5.32
2023-04-08T13:25:07.423Z,5.40
2023-04-08T13:27:40.760Z,4.93
2023-04-08T13:30:14.257Z,5.53
2023-04-08T13:32:47.332Z,6.47
2023-04-08T13:35:21.824Z,3.88
2023-04-08T13:37:55.363Z,4.25
2023-04-08T13:40:28.324Z,7.65
2023-04-08T13:43:01.747Z,4.95
2023-04-08T13:45:34.535Z,4.28
2023-04-08T13:48:10.934Z,3.38
2023-04-08T13:50:45.161Z,4.68
2023-04-08T13:53:18.089Z,5.60
2023-04-08T13:55:55.072Z,6.25
2023-04-08T13:58:28.017Z,5.32
2023-04-08T14:01:01.039Z,7.40
2023-04-08T14:03:34.014Z,4.88
2023-04-08T14:06:08.628Z,5.60
2023-04-08T14:08:41.542Z,5.05
2023-04-08T14:11:14.338Z,5.85
2023-04-08T14:13:47.418Z,4.68
2023-04-08T14:16:20.429Z,4.75
2023-04-08T14:18:53.662Z,9.20
2023-04-08T14:21:28.189Z,5.25
2023-04-08T14:24:02.634Z,4.85
2023-04-08T14:26:36.019Z,4.85
2023-04-08T14:29:09.037Z,5.95
2023-04-08T14:31:42.142Z,4.60
2023-04-08T14:34:16.062Z,4.38
2023-04-08T14:36:50.252Z,6.20
2023-04-08T14:39:23.564Z,4.78
2023-04-08T14:41:57.376Z,5.65
2023-04-08T14:44:30.190Z,5.50
2023-04-08T14:47:03.886Z,4.65
2023-04-08T14:49:36.720Z,4.90
2023-04-08T14:52:11.112Z,5.50
2023-04-08T14:54:45.432Z,5.90
2023-04-08T14:57:18.425Z,9.38
2023-04-08T14:59:51.390Z,7.65
2023-04-08T15:02:24.539Z,5.55
2023-04-08T15:04:58.230Z,5.55
2023-04-08T15:07:32.698Z,5.25
2023-04-08T15:10:05.977Z,5.60
2023-04-08T15:12:38.965Z,5.60
2023-04-08T15:15:12.517Z,4.72
2023-04-08T15:17:45.428Z,5.57
2023-04-08T15:20:19.032Z,4.22
2023-04-08T15:22:53.751Z,5.10
2023-04-08T15:25:26.630Z,4.97
2023-04-08T15:27:59.656Z,4.70
2023-04-08T15:30:35.385Z,5.20
2023-04-08T15:33:08.457Z,4.18
2023-04-08T15:35:41.691Z,4.97
2023-04-08T15:38:16.214Z,6.97
2023-04-08T15:40:49.014Z,5.47
2023-04-08T15:43:22.476Z,6.05
2023-04-08T15:45:55.583Z,4.45
2023-04-08T15:48:28.345Z,6.05
2023-04-08T15:51:08.228Z,5.88
2023-04-08T15:53:42.723Z,6.68
2023-04-08T15:56:18.073Z,6.72
2023-04-08T15:58:51.391Z,6.90
2023-04-08T16:01:24.367Z,7.95
2023-04-08T16:03:57.298Z,8.85
2023-04-08T16:06:30.318Z,9.05
2023-04-08T16:09:04.647Z,14.00
2023-04-08T16:11:37.779Z,8.25
2023-04-08T16:14:11.215Z,13.40
2023-04-08T16:16:44.298Z,14.65
2023-04-08T16:19:17.572Z,7.63
2023-04-08T16:21:50.989Z,8.02
2023-04-08T16:24:25.090Z,7.32
2023-04-08T16:26:58.765Z,8.57
2023-04-08T16:29:32.581Z,7.32
2023-04-08T16:32:05.548Z,7.32
2023-04-08T16:34:38.423Z,7.25
2023-04-08T16:37:12.257Z,7.43
2023-04-08T16:39:47.559Z,7.07
2023-04-08T16:42:20.649Z,6.00
2023-04-08T16:44:56.975Z,7.18
2023-04-08T16:47:29.937Z,6.25
2023-04-08T16:50:03.324Z,5.72
2023-04-08T16:52:39.926Z,6.97
2023-04-08T16:55:14.644Z,6.25
2023-04-08T16:57:47.604Z,12.23
2023-04-08T17:00:21.216Z,7.25
2023-04-08T17:02:56.876Z,7.20
2023-04-08T17:05:29.993Z,7.22
2023-04-08T17:08:02.843Z,6.90
2023-04-08T17:10:37.140Z,6.82
2023-04-08T17:13:10.837Z,8.50
2023-04-08T17:15:44.682Z,8.10
2023-04-08T17:18:17.602Z,8.63
2023-04-08T17:20:50.430Z,9.07
2023-04-08T17:23:23.955Z,7.93
2023-04-08T17:25:59.804Z,9.27
2023-04-08T17:28:32.966Z,9.73
2023-04-08T17:31:05.951Z,9.93
2023-04-08T17:33:38.893Z,12.35
2023-04-08T17:36:12.066Z,13.98
2023-04-08T17:38:47.145Z,11.95
2023-04-08T17:41:38.462Z,16.30
2023-04-08T17:44:12.190Z,10.73
2023-04-08T17:46:45.173Z,10.68
2023-04-08T17:49:18.553Z,11.57
2023-04-08T17:51:52.131Z,15.48
2023-04-08T17:54:25.715Z,10.63
2023-04-08T17:56:59.826Z,12.00
2023-04-08T17:59:32.621Z,10.00
2023-04-08T18:02:06.181Z,12.60
2023-04-08T18:04:39.180Z,12.43
2023-04-08T18:07:12.160Z,9.77
2023-04-08T18:09:46.401Z,10.82
2023-04-08T18:12:21.495Z,11.88
2023-04-08T18:14:54.432Z,12.50
2023-04-08T18:17:27.683Z,12.43
2023-04-08T18:20:00.628Z,12.80
2023-04-08T18:22:36.639Z,14.32
2023-04-08T18:25:10.435Z,9.80
2023-04-08T18:27:44.692Z,11.90
2023-04-08T18:30:17.489Z,11.73
2023-04-08T18:32:50.253Z,11.90
2023-04-08T18:35:23.616Z,12.65
2023-04-08T18:37:57.312Z,12.05
2023-04-08T18:40:31.542Z,13.68
2023-04-08T18:43:06.056Z,10.35
2023-04-08T18:45:38.997Z,11.80
2023-04-08T18:48:12.555Z,11.55
2023-04-08T18:50:45.894Z,12.15
2023-04-08T18:53:18.837Z,10.57
2023-04-08T18:55:52.473Z,12.50
2023-04-08T18:58:27.205Z,11.90
2023-04-08T19:01:00.264Z,12.65
2023-04-08T19:03:33.614Z,12.48
2023-04-08T19:06:07.514Z,11.10
2023-04-08T19:08:41.467Z,11.88
2023-04-08T19:11:14.660Z,10.57
2023-04-08T19:13:48.825Z,12.35
2023-04-08T19:16:21.749Z,11.30
2023-04-08T19:18:54.914Z,12.00
2023-04-08T19:21:30.856Z,12.93
2023-04-08T19:24:05.437Z,12.00
2023-04-08T19:26:38.353Z,12.30
2023-04-08T19:29:13.372Z,12.25
2023-04-08T19:31:46.878Z,13.40
2023-04-08T19:34:19.680Z,12.02
2023-04-08T19:36:52.832Z,13.10
2023-04-08T19:39:27.140Z,13.48
2023-04-08T19:42:02.401Z,13.38
2023-04-08T19:44:36.592Z,13.55
2023-04-08T19:47:09.724Z,14.30
2023-04-08T19:49:42.772Z,14.25
2023-04-08T19:52:16.826Z,14.05
2023-04-08T19:54:51.249Z,18.83
2023-04-08T19:57:24.974Z,13.32
2023-04-08T19:59:59.103Z,15.63
2023-04-08T20:02:32.185Z,15.63
2023-04-08T20:05:14.553Z,15.45
2023-04-08T20:07:47.360Z,15.82
2023-04-08T20:10:20.597Z,14.80
2023-04-08T20:12:53.870Z,14.43
2023-04-08T20:15:28.182Z,14.13
2023-04-08T20:18:00.988Z,16.33
2023-04-08T20:20:34.793Z,12.45
2023-04-08T20:23:07.622Z,15.25
2023-04-08T20:25:41.194Z,16.33
2023-04-08T20:28:14.300Z,16.58
2023-04-08T20:30:48.683Z,17.58
2023-04-08T20:33:21.519Z,16.80
2023-04-08T20:35:54.737Z,18.83
2023-04-08T20:38:28.297Z,15.57
2023-04-08T20:41:01.284Z,19.88
2023-04-08T20:43:34.048Z,16.30
2023-04-08T20:46:08.237Z,16.15
2023-04-08T20:48:44.412Z,15.52
2023-04-08T20:51:18.522Z,19.58
2023-04-08T20:53:51.323Z,18.30
2023-04-08T20:56:24.085Z,19.65
2023-04-08T20:58:59.700Z,17.92
2023-04-08T21:01:34.807Z,15.50
2023-04-08T21:04:07.594Z,16.98
2023-04-08T21:06:40.643Z,19.48
2023-04-08T21:09:14.920Z,16.63
2023-04-08T21:11:47.651Z,19.55
2023-04-08T21:14:20.900Z,17.88
2023-04-08T21:16:55.048Z,19.40
2023-04-08T21:19:27.883Z,18.02
2023-04-08T21:22:00.706Z,18.33
2023-04-08T21:24:34.121Z,19.83
2023-04-08T21:27:07.102Z,17.27
2023-04-08T21:29:42.074Z,16.85
2023-04-08T21:32:17.127Z,16.85
2023-04-08T21:34:53.168Z,17.65
2023-04-08T21:37:26.522Z,20.20
2023-04-08T21:39:59.723Z,17.45
2023-04-08T21:42:33.093Z,19.50
2023-04-08T21:45:07.519Z,19.98
2023-04-08T21:47:42.022Z,19.30
2023-04-08T21:50:15.364Z,17.88
2023-04-08T21:52:48.942Z,18.85
2023-04-08T21:55:22.159Z,17.98
2023-04-08T21:57:55.695Z,18.38
2023-04-08T22:00:28.827Z,18.50
2023-04-08T22:03:03.247Z,21.00
2023-04-08T22:05:37.212Z,20.25
2023-04-08T22:08:10.535Z,20.27
2023-04-08T22:10:44.139Z,21.20
2023-04-08T22:13:18.905Z,19.08
2023-04-08T22:15:52.109Z,21.88
2023-04-08T22:18:27.269Z,19.70
2023-04-08T22:21:00.644Z,20.40
2023-04-08T22:23:34.361Z,18.80
2023-04-08T22:26:07.478Z,21.05
2023-04-08T22:28:40.559Z,21.25
2023-04-08T22:31:14.106Z,18.58
2023-04-08T22:33:48.721Z,19.90
2023-04-08T22:36:22.204Z,21.40
2023-04-08T22:38:55.454Z,18.17
2023-04-08T22:41:28.510Z,19.52
2023-04-08T22:44:01.528Z,20.17
2023-04-08T22:46:35.386Z,20.98
2023-04-08T22:49:13.205Z,20.98
2023-04-08T22:51:46.334Z,20.40
2023-04-08T22:54:19.192Z,21.00
2023-04-08T22:56:52.010Z,21.60
2023-04-08T22:59:24.909Z,19.70
2023-04-08T23:01:57.785Z,21.55
2023-04-08T23:04:32.333Z,20.85
2023-04-08T23:07:05.899Z,21.20
2023-04-08T23:09:38.694Z,22.30
2023-04-08T23:12:11.473Z,20.23
2023-04-08T23:14:44.246Z,24.00
2023-04-08T23:17:17.176Z,21.75
2023-04-08T23:19:51.432Z,24.70
2023-04-08T23:22:25.106Z,22.17
2023-04-08T23:24:57.964Z,21.13
2023-04-08T23:27:31.583Z,22.58
2023-04-08T23:30:07.218Z,21.58
2023-04-08T23:32:40.097Z,22.42
2023-04-08T23:35:16.565Z,21.48
2023-04-08T23:37:49.346Z,26.67
2023-04-08T23:40:22.336Z,26.85
2023-04-08T23:42:55.328Z,24.55
2023-04-08T23:45:28.145Z,22.55
2023-04-08T23:48:01.272Z,22.52
2023-04-08T23:50:35.649Z,20.92
2023-04-08T23:53:08.563Z,20.55
2023-04-08T23:55:41.325Z,20.45
2023-04-08T23:58:14.400Z,21.42
